createdAt,value
2023-12-07T00:02:28.421Z,27.35
2023-12-07T00:07:31.387Z,36.67
2023-12-07T00:12:34.263Z,33.72
2023-12-07T00:17:37.226Z,30.85
2023-12-07T00:22:40.242Z,27.60
2023-12-07T00:27:43.116Z,31.52
2023-12-07T00:32:45.873Z,29.83
2023-12-07T00:37:48.712Z,36.35
2023-12-07T00:42:51.727Z,34.33
2023-12-07T00:47:55.124Z,37.17
2023-12-07T00:52:58.085Z,29.95
2023-12-07T00:58:02.974Z,24.95
2023-12-07T01:08:08.533Z,29.25
2023-12-07T01:13:11.456Z,26.35
2023-12-07T01:18:14.338Z,46.28
2023-12-07T01:23:17.252Z,29.98
2023-12-07T01:28:20.139Z,26.27
2023-12-07T01:33:23.372Z,29.67
2023-12-07T01:38:26.193Z,28.20
2023-12-07T01:43:29.301Z,26.38
2023-12-07T01:48:32.433Z,33.22
2023-12-07T01:53:35.877Z,31.38
2023-12-07T01:58:39.935Z,31.38
2023-12-07T02:03:43.342Z,31.40
2023-12-07T02:08:46.493Z,31.70
2023-12-07T02:13:50.285Z,32.20
2023-12-07T02:19:10.626Z,29.38
2023-12-07T02:24:18.363Z,30.02
2023-12-07T02:29:21.941Z,34.45
2023-12-07T02:34:24.821Z,30.92
2023-12-07T02:39:28.450Z,27.63
2023-12-07T02:44:31.802Z,31.48
2023-12-07T02:49:35.097Z,36.67
2023-12-07T02:54:38.086Z,37.42
2023-12-07T02:59:40.804Z,27.70
2023-12-07T03:04:43.684Z,35.83
2023-12-07T03:09:46.788Z,33.60
2023-12-07T03:14:50.360Z,32.30
2023-12-07T03:19:53.573Z,31.83
2023-12-07T03:24:56.448Z,32.28
2023-12-07T03:29:59.418Z,32.45
2023-12-07T03:35:02.167Z,30.40
2023-12-07T03:40:07.268Z,32.78
2023-12-07T03:45:10.450Z,40.90
2023-12-07T03:50:13.307Z,27.17
2023-12-07T03:55:16.322Z,27.05
2023-12-07T04:00:19.283Z,34.97
2023-12-07T04:05:22.046Z,30.02
2023-12-07T04:10:25.363Z,35.85
2023-12-07T04:15:28.478Z,32.92
2023-12-07T04:20:31.399Z,31.98
2023-12-07T04:25:34.430Z,41.45
2023-12-07T04:30:37.206Z,34.20
2023-12-07T04:35:40.224Z,29.60
2023-12-07T04:40:43.818Z,32.10
2023-12-07T04:45:46.908Z,36.60
2023-12-07T04:50:49.742Z,36.10
2023-12-07T04:55:52.707Z,32.13
2023-12-07T05:00:56.958Z,28.98
2023-12-07T05:06:00.025Z,32.45
2023-12-07T05:11:02.975Z,35.10
2023-12-07T05:16:08.267Z,35.50
2023-12-07T05:21:11.477Z,33.17
2023-12-07T05:26:14.535Z,35.67
2023-12-07T05:31:20.569Z,32.10
2023-12-07T05:36:23.537Z,29.85
2023-12-07T05:41:27.173Z,38.45
2023-12-07T05:46:30.170Z,29.17
2023-12-07T05:51:33.053Z,29.05
2023-12-07T05:56:36.059Z,38.13
2023-12-07T06:01:39.019Z,38.20
2023-12-07T06:06:42.092Z,33.97
2023-12-07T06:11:44.948Z,38.55
2023-12-07T06:16:47.771Z,35.63
2023-12-07T06:21:50.567Z,35.28
2023-12-07T06:26:53.868Z,39.22
2023-12-07T06:31:57.296Z,36.55
2023-12-07T06:37:00.128Z,29.13
2023-12-07T06:42:03.478Z,34.88
2023-12-07T06:47:06.472Z,40.17
2023-12-07T06:52:09.411Z,38.60
2023-12-07T06:57:12.595Z,31.48
2023-12-07T07:02:15.764Z,47.10
2023-12-07T07:07:19.185Z,36.88
2023-12-07T07:12:23.362Z,35.00
2023-12-07T07:17:26.540Z,29.00
2023-12-07T07:22:29.698Z,36.83
2023-12-07T07:27:33.135Z,39.78
2023-12-07T07:32:37.029Z,34.75
2023-12-07T07:37:40.707Z,36.80
2023-12-07T07:42:43.613Z,43.70
2023-12-07T07:47:46.720Z,36.20
2023-12-07T07:52:49.705Z,48.25
2023-12-07T07:57:52.555Z,35.75
2023-12-07T08:02:55.356Z,43.28
2023-12-07T08:07:58.230Z,35.35
2023-12-07T08:13:01.240Z,37.03
2023-12-07T08:18:04.352Z,36.83
2023-12-07T08:23:07.294Z,33.70
2023-12-07T08:28:11.066Z,30.85
2023-12-07T08:33:15.644Z,38.55
2023-12-07T08:38:18.714Z,36.50
2023-12-07T08:43:25.353Z,37.10
2023-12-07T08:48:28.930Z,34.17
2023-12-07T08:53:31.882Z,47.90
2023-12-07T08:58:34.835Z,47.33
2023-12-07T09:03:39.529Z,42.10
2023-12-07T09:08:42.605Z,42.22
2023-12-07T09:13:46.872Z,39.15
2023-12-07T09:19:06.994Z,39.53
2023-12-07T09:24:14.662Z,32.20
2023-12-07T09:29:17.803Z,43.53
2023-12-07T09:34:20.942Z,39.50
2023-12-07T09:39:25.420Z,39.00
2023-12-07T09:44:29.056Z,42.40
2023-12-07T09:49:32.409Z,38.30
2023-12-07T09:54:36.682Z,50.50
2023-12-07T09:59:42.383Z,50.40
2023-12-07T10:04:46.177Z,50.03
2023-12-07T10:09:49.098Z,51.60
2023-12-07T10:14:52.191Z,45.53
2023-12-07T10:20:10.712Z,39.60
2023-12-07T10:25:14.518Z,49.85
2023-12-07T10:30:17.765Z,49.38
2023-12-07T10:35:24.419Z,43.33
2023-12-07T10:40:27.508Z,45.00
2023-12-07T10:45:32.390Z,43.53
2023-12-07T10:50:45.991Z,53.72
2023-12-07T10:55:57.489Z,51.58
2023-12-07T11:01:02.406Z,39.35
2023-12-07T11:11:27.529Z,48.22
2023-12-07T11:16:43.427Z,55.20
2023-12-07T11:21:46.320Z,49.35
2023-12-07T11:26:49.597Z,48.17
2023-12-07T11:31:58.236Z,39.80
2023-12-07T11:37:01.779Z,44.85
2023-12-07T11:42:26.457Z,48.03
2023-12-07T11:47:30.278Z,48.90
2023-12-07T11:52:33.755Z,46.78
2023-12-07T11:57:37.268Z,52.58
2023-12-07T12:02:40.730Z,46.47
2023-12-07T12:07:44.434Z,43.67
2023-12-07T12:12:47.672Z,38.80
2023-12-07T12:17:53.420Z,47.38
2023-12-07T12:22:56.967Z,44.03
2023-12-07T12:28:06.339Z,40.38
2023-12-07T12:33:09.664Z,43.22
2023-12-07T12:38:20.959Z,50.95
2023-12-07T12:44:51.965Z,47.38
2023-12-07T12:49:55.421Z,39.85
2023-12-07T12:54:59.480Z,38.88
2023-12-07T13:00:14.129Z,43.80
2023-12-07T13:05:19.099Z,45.55
2023-12-07T13:10:22.587Z,39.42
2023-12-07T13:15:27.196Z,45.47
2023-12-07T13:25:33.864Z,43.22
2023-12-07T13:30:38.192Z,37.95
2023-12-07T13:35:48.099Z,44.55
2023-12-07T13:41:04.728Z,48.03
2023-12-07T13:51:41.322Z,33.33
2023-12-07T13:56:56.948Z,52.00
2023-12-07T14:02:05.426Z,51.70
2023-12-07T14:07:15.313Z,45.33
2023-12-07T14:12:30.933Z,44.30
2023-12-07T14:17:47.260Z,44.63
2023-12-07T14:23:22.638Z,66.10
2023-12-07T14:28:37.725Z,54.08
2023-12-07T14:33:57.880Z,65.50
2023-12-07T14:39:15.764Z,84.97
2023-12-07T14:44:28.940Z,120.20
2023-12-07T14:49:34.738Z,50.42
2023-12-07T14:59:46.183Z,52.70
2023-12-07T15:04:50.753Z,65.10
2023-12-07T15:09:53.902Z,47.92
2023-12-07T15:14:57.174Z,77.05
2023-12-07T15:20:00.771Z,70.10
2023-12-07T15:25:06.559Z,90.47
2023-12-07T15:30:12.154Z,61.45
2023-12-07T15:35:15.600Z,46.83
2023-12-07T15:40:18.919Z,44.10
2023-12-07T15:45:22.217Z,40.58
2023-12-07T15:50:26.203Z,40.85
2023-12-07T15:55:32.602Z,40.90
2023-12-07T16:00:36.724Z,43.20
2023-12-07T16:05:43.123Z,38.35
2023-12-07T16:10:46.234Z,32.63
2023-12-07T16:15:51.363Z,46.25
2023-12-07T16:20:55.384Z,44.13
2023-12-07T16:25:58.457Z,60.53
2023-12-07T16:31:02.160Z,47.05
2023-12-07T16:36:13.004Z,51.70
2023-12-07T16:41:26.696Z,49.72
2023-12-07T16:46:29.973Z,43.75
2023-12-07T16:51:37.322Z,49.22
2023-12-07T16:56:45.557Z,46.17
2023-12-07T17:01:54.149Z,43.58
2023-12-07T17:07:00.825Z,52.25
2023-12-07T17:12:05.368Z,45.00
2023-12-07T17:17:11.595Z,48.58
2023-12-07T17:22:17.362Z,46.47
2023-12-07T17:27:22.099Z,42.58
2023-12-07T17:38:19.636Z,46.75
2023-12-07T17:43:23.258Z,48.10
2023-12-07T17:48:27.054Z,46.58
2023-12-07T17:53:30.434Z,55.05
2023-12-07T17:58:33.405Z,58.80
2023-12-07T18:03:37.236Z,57.10
2023-12-07T18:08:40.217Z,40.88
2023-12-07T18:13:43.213Z,51.88
2023-12-07T18:18:46.705Z,47.20
2023-12-07T18:23:49.904Z,48.53
2023-12-07T18:28:53.103Z,37.17
2023-12-07T18:33:56.666Z,49.63
2023-12-07T18:39:00.416Z,47.00
2023-12-07T18:44:05.067Z,47.33
2023-12-07T18:49:09.841Z,39.60
2023-12-07T18:54:14.970Z,51.17
2023-12-07T18:59:18.574Z,54.92
2023-12-07T19:04:22.324Z,39.15
2023-12-07T19:09:25.926Z,35.70
2023-12-07T19:14:29.228Z,46.85
2023-12-07T19:19:33.933Z,52.47
2023-12-07T19:24:37.034Z,37.42
2023-12-07T19:29:41.700Z,33.83
2023-12-07T19:34:44.736Z,42.15
2023-12-07T19:39:47.828Z,42.00
2023-12-07T19:44:51.844Z,41.50
2023-12-07T19:49:55.064Z,34.10
2023-12-07T19:54:59.275Z,41.08
2023-12-07T20:00:02.890Z,35.22
2023-12-07T20:05:09.279Z,29.38
2023-12-07T20:10:12.320Z,39.47
2023-12-07T20:15:15.738Z,34.30
2023-12-07T20:20:19.419Z,42.10
2023-12-07T20:25:24.116Z,30.45
2023-12-07T20:30:30.184Z,33.67
2023-12-07T20:35:34.516Z,40.55
2023-12-07T20:40:38.928Z,38.00
2023-12-07T20:45:42.674Z,45.20
2023-12-07T20:50:47.002Z,35.47
2023-12-07T20:55:50.635Z,29.27
2023-12-07T21:00:54.763Z,22.08
2023-12-07T21:05:59.499Z,29.38
2023-12-07T21:11:05.137Z,32.00
2023-12-07T21:16:09.827Z,36.63
2023-12-07T21:21:13.572Z,41.28
2023-12-07T21:26:16.835Z,44.00
2023-12-07T21:31:23.789Z,34.53
2023-12-07T21:36:26.670Z,37.88
2023-12-07T21:41:29.630Z,33.78
2023-12-07T21:46:32.595Z,39.80
2023-12-07T21:51:35.442Z,36.92
2023-12-07T21:56:38.676Z,47.03
2023-12-07T22:01:41.700Z,38.22
2023-12-07T22:06:44.859Z,45.03
2023-12-07T22:11:47.704Z,32.00
2023-12-07T22:16:50.732Z,45.80
2023-12-07T22:21:53.519Z,42.08
2023-12-07T22:26:56.507Z,43.78
2023-12-07T22:32:00.108Z,52.80
2023-12-07T22:37:03.198Z,44.30
2023-12-07T22:42:06.608Z,35.55
2023-12-07T22:47:09.615Z,49.25
2023-12-07T22:52:12.529Z,44.58
2023-12-07T22:57:15.418Z,49.10
2023-12-07T23:02:18.572Z,46.20
2023-12-07T23:07:22.951Z,52.78
2023-12-07T23:12:25.792Z,49.13
2023-12-07T23:17:29.166Z,53.83
2023-12-07T23:22:32.063Z,46.42
2023-12-07T23:27:35.028Z,45.70
2023-12-07T23:32:37.938Z,40.63
2023-12-07T23:37:40.875Z,46.45
2023-12-07T23:42:43.818Z,39.85
2023-12-07T23:47:47.001Z,50.33
2023-12-07T23:52:50.121Z,39.10
2023-12-07T23:57:53.593Z,43.13
